Portada
METAR-TAF:

METAR-TAF

Aeroports :

Bermudes, Bermudes

latitud: 32-22N, longitud: 064-41W, altitud: 6 m

Observació

L'informe es va fer fa 14 minuts, a les 04:55 UTC
Vent 12 kt del Nord
Temperatura 23°C
Humitat 61%
Pressió 1022 hPa
Visibilitat 10 km o més
Escasses núvols a una alçada de 3500 ft
Cel ennuvolat a una alçada de 30000 ft

METAR: TXKF 210455Z 36012KT 9999 FEW035 BKN300 23/15 Q1022

Hora: 02:09 (05:09 UTC)

Pronòstic

L'informe es va fer fa 5 hores i 34 minuts, a les 23:35 UTC
Pronòstic vàlid del 21 a les 00 UTC al 21 a les 24 UTC
Vent 10 kt del Nord
Visibilitat 10 km o més
Núvols disperses a una alçada de 3500 ft
Cel ennuvolat a una alçada de 30000 ft
Evolucionant progressivament
l' 21 a les 21 UTC al 21 a les 24 UTC
Vent 12 kt del Nord-Est

TAF: TXKF 202335Z 2100/2124 36010KT 9999 SCT035 BKN300 BECMG 2121/2124 05012KT

Observacions i pronòstics meteorològics de més de 4000 aeroports (METAR i TAF).

Les estacions disponibles són els punts grocs i vermells al mapa.

Posi el ratolí al punt desitjat per veure el nom de l'estació.

Feu clic per veure les observacions i els pronòstics meteorològics.

Per canviar el mapa: feu clic els botons verds amb una creu de color negre per apropar; al botó verd amb un guió per allunyar la imatge; o en les fletxes verdes per a mapes adjacents.


METAR-TAF: